createdAt,value
2018-04-30T00:00:54.827Z,19.51
2018-04-30T00:03:20.793Z,19.50
2018-04-30T00:05:46.734Z,19.45
2018-04-30T00:08:12.668Z,19.46
2018-04-30T00:10:38.612Z,19.45
2018-04-30T00:13:04.592Z,19.39
2018-04-30T00:15:30.516Z,19.38
2018-04-30T00:17:56.458Z,19.36
2018-04-30T00:20:22.377Z,19.36
2018-04-30T00:22:48.317Z,19.40
2018-04-30T00:25:14.242Z,19.28
2018-04-30T00:27:40.200Z,19.32
2018-04-30T00:30:06.152Z,19.33
2018-04-30T00:32:32.089Z,19.20
2018-04-30T00:34:58.017Z,19.16
2018-04-30T00:37:23.974Z,19.12
2018-04-30T00:39:49.899Z,19.11
2018-04-30T00:42:15.861Z,18.98
2018-04-30T00:44:41.811Z,19.02
2018-04-30T00:47:07.761Z,18.92
2018-04-30T00:49:33.681Z,18.98
2018-04-30T00:51:59.612Z,19.07
2018-04-30T00:54:25.585Z,19.15
2018-04-30T00:56:51.553Z,19.09
2018-04-30T00:59:17.503Z,19.02
2018-04-30T01:01:43.445Z,19.08
2018-04-30T01:04:09.400Z,18.98
2018-04-30T01:06:35.324Z,18.85
2018-04-30T01:09:01.262Z,18.80
2018-04-30T01:11:27.189Z,19.03
2018-04-30T01:13:53.124Z,19.11
2018-04-30T01:16:19.042Z,19.07
2018-04-30T01:18:44.986Z,18.98
2018-04-30T01:21:10.942Z,18.92
2018-04-30T01:23:42.900Z,18.80
2018-04-30T01:26:08.837Z,18.89
2018-04-30T01:28:34.824Z,18.96
2018-04-30T01:31:00.768Z,18.79
2018-04-30T01:33:26.713Z,18.90
2018-04-30T01:35:52.641Z,18.85
2018-04-30T01:38:18.583Z,18.91
2018-04-30T01:40:44.522Z,18.86
2018-04-30T01:43:10.480Z,18.70
2018-04-30T01:45:36.438Z,18.82
2018-04-30T01:48:02.399Z,18.93
2018-04-30T01:50:28.323Z,18.84
2018-04-30T01:52:54.365Z,18.99
2018-04-30T01:55:20.295Z,18.87
2018-04-30T01:57:46.233Z,18.88
2018-04-30T02:00:12.152Z,18.89
2018-04-30T02:02:38.107Z,19.00
2018-04-30T02:05:04.088Z,18.98
2018-04-30T02:07:30.041Z,18.94
2018-04-30T02:09:55.979Z,19.07
2018-04-30T02:12:21.920Z,19.19
2018-04-30T02:14:47.864Z,19.16
2018-04-30T02:17:13.816Z,18.94
2018-04-30T02:19:39.757Z,18.91
2018-04-30T02:22:05.709Z,19.08
2018-04-30T02:24:31.652Z,19.10
2018-04-30T02:26:57.580Z,18.88
2018-04-30T02:29:23.523Z,18.96
2018-04-30T02:31:49.479Z,18.86
2018-04-30T02:34:15.419Z,18.83
2018-04-30T02:36:41.372Z,19.06
2018-04-30T02:39:07.305Z,18.98
2018-04-30T02:41:33.251Z,19.01
2018-04-30T02:43:59.214Z,18.98
2018-04-30T02:46:25.154Z,18.84
2018-04-30T02:48:51.090Z,19.00
2018-04-30T02:51:17.041Z,18.85
2018-04-30T02:53:43.043Z,18.87
2018-04-30T02:56:09.013Z,18.83
2018-04-30T02:58:34.969Z,19.00
2018-04-30T03:01:00.897Z,18.94
2018-04-30T03:03:26.838Z,19.00
2018-04-30T03:05:52.782Z,18.92
2018-04-30T03:08:18.727Z,18.86
2018-04-30T03:10:44.648Z,18.80
2018-04-30T03:13:10.598Z,18.94
2018-04-30T03:15:36.522Z,19.03
2018-04-30T03:18:02.467Z,18.91
2018-04-30T03:20:28.389Z,18.91
2018-04-30T03:22:54.329Z,19.06
2018-04-30T03:25:20.253Z,19.13
2018-04-30T03:27:46.177Z,19.17
2018-04-30T03:30:12.095Z,19.16
2018-04-30T03:32:38.045Z,19.14
2018-04-30T03:35:03.976Z,19.13
2018-04-30T03:37:29.914Z,19.02
2018-04-30T03:39:55.864Z,19.06
2018-04-30T03:42:21.813Z,19.11
2018-04-30T03:44:47.752Z,18.98
2018-04-30T03:47:13.695Z,18.95
2018-04-30T03:49:39.624Z,18.76
2018-04-30T03:52:05.540Z,18.56
2018-04-30T03:54:31.489Z,18.79
2018-04-30T03:56:57.436Z,18.83
2018-04-30T03:59:23.382Z,18.88
2018-04-30T04:01:49.318Z,18.78
2018-04-30T04:04:15.249Z,18.55
2018-04-30T04:06:41.192Z,18.69
2018-04-30T04:09:07.131Z,18.91
2018-04-30T04:11:33.053Z,18.93
2018-04-30T04:13:59.015Z,18.80
2018-04-30T04:16:24.963Z,18.70
2018-04-30T04:18:50.926Z,18.71
2018-04-30T04:21:16.907Z,18.31
2018-04-30T04:23:42.837Z,18.33
2018-04-30T04:26:08.789Z,18.57
2018-04-30T04:28:34.737Z,18.42
2018-04-30T04:31:00.689Z,18.36
2018-04-30T04:33:26.607Z,18.42
2018-04-30T04:35:52.558Z,18.38
2018-04-30T04:38:18.497Z,18.43
2018-04-30T04:40:44.462Z,18.42
2018-04-30T04:43:10.376Z,18.48
2018-04-30T04:48:08.626Z,18.73
2018-04-30T04:50:34.629Z,18.72
2018-04-30T04:53:00.563Z,18.74
2018-04-30T04:55:26.501Z,18.81
2018-04-30T04:57:52.425Z,18.77
2018-04-30T05:00:18.365Z,18.88
2018-04-30T05:02:44.331Z,18.88
2018-04-30T05:05:10.288Z,18.86
2018-04-30T05:07:36.230Z,19.01
2018-04-30T05:10:02.174Z,19.10
2018-04-30T05:12:28.127Z,19.14
2018-04-30T05:14:54.069Z,19.06
2018-04-30T05:17:20.009Z,18.98
2018-04-30T05:19:45.953Z,19.01
2018-04-30T05:22:11.898Z,19.10
2018-04-30T05:24:37.841Z,19.13
2018-04-30T05:27:03.765Z,19.03
2018-04-30T05:29:29.721Z,19.11
2018-04-30T05:31:55.642Z,19.14
2018-04-30T05:34:21.560Z,19.13
2018-04-30T05:36:47.496Z,19.18
2018-04-30T05:39:13.475Z,19.23
2018-04-30T05:41:39.409Z,19.36
2018-04-30T05:44:05.343Z,19.55
2018-04-30T05:46:31.351Z,19.57
2018-04-30T05:48:57.303Z,19.59
2018-04-30T05:51:23.224Z,19.58
2018-04-30T05:53:49.176Z,19.60
2018-04-30T05:56:15.122Z,19.71
2018-04-30T05:58:41.056Z,19.70
2018-04-30T06:01:07.059Z,19.88
2018-04-30T06:03:33.009Z,19.93
2018-04-30T06:05:58.966Z,19.99
2018-04-30T06:08:24.917Z,20.11
2018-04-30T06:10:50.889Z,19.90
2018-04-30T06:13:16.830Z,19.77
2018-04-30T06:15:42.822Z,19.84
2018-04-30T06:18:08.763Z,19.96
2018-04-30T06:20:34.738Z,20.04
2018-04-30T06:23:00.699Z,20.09
2018-04-30T06:25:26.672Z,20.24
2018-04-30T06:27:52.605Z,20.41
2018-04-30T06:30:18.559Z,20.37
2018-04-30T06:32:44.509Z,20.55
2018-04-30T06:35:10.480Z,20.61
2018-04-30T06:37:36.434Z,20.76
2018-04-30T06:40:02.401Z,20.86
2018-04-30T06:42:28.329Z,20.88
2018-04-30T06:44:54.267Z,20.96
2018-04-30T06:47:20.217Z,21.07
2018-04-30T06:49:46.155Z,21.10
2018-04-30T06:52:12.116Z,21.15
2018-04-30T06:54:38.045Z,21.23
2018-04-30T06:57:05.042Z,21.28
2018-04-30T06:59:31.018Z,21.31
2018-04-30T07:01:56.933Z,21.44
2018-04-30T07:04:22.863Z,21.47
2018-04-30T07:06:48.796Z,21.72
2018-04-30T07:09:14.851Z,21.80
2018-04-30T07:11:40.720Z,21.86
2018-04-30T07:14:06.656Z,21.89
2018-04-30T07:16:32.594Z,22.03
2018-04-30T07:18:58.521Z,22.09
2018-04-30T07:21:24.500Z,22.18
2018-04-30T07:23:50.444Z,22.31
2018-04-30T07:26:16.406Z,22.32
2018-04-30T07:28:42.339Z,22.32
2018-04-30T07:31:08.295Z,22.43
2018-04-30T07:33:34.243Z,22.60
2018-04-30T07:36:00.191Z,22.62
2018-04-30T07:38:26.117Z,22.61
2018-04-30T07:40:52.080Z,23.07
2018-04-30T07:43:18.017Z,23.20
2018-04-30T07:45:43.961Z,23.37
2018-04-30T07:48:09.989Z,23.11
2018-04-30T07:50:35.924Z,22.96
2018-04-30T07:53:01.876Z,22.59
2018-04-30T07:55:27.889Z,22.49
2018-04-30T07:57:53.843Z,22.39
2018-04-30T08:00:19.780Z,22.60
2018-04-30T08:02:45.748Z,22.62
2018-04-30T08:05:11.697Z,23.08
2018-04-30T08:07:37.650Z,23.41
2018-04-30T08:10:03.602Z,23.36
2018-04-30T08:12:29.549Z,23.12
2018-04-30T08:14:55.528Z,23.14
2018-04-30T08:17:21.469Z,23.20
2018-04-30T08:19:47.415Z,23.42
2018-04-30T08:22:13.372Z,23.57
2018-04-30T08:24:39.330Z,23.41
2018-04-30T08:27:05.278Z,23.24
2018-04-30T08:29:31.279Z,23.40
2018-04-30T08:31:57.178Z,23.20
2018-04-30T08:34:23.135Z,23.18
2018-04-30T08:36:49.093Z,23.14
2018-04-30T08:39:15.034Z,23.25
2018-04-30T08:41:41.119Z,23.30
2018-04-30T08:44:07.045Z,23.13
2018-04-30T08:46:33.023Z,22.99
2018-04-30T08:48:58.974Z,23.00
2018-04-30T08:51:24.945Z,23.04
2018-04-30T08:53:50.888Z,23.08
2018-04-30T08:56:16.846Z,22.94
2018-04-30T08:58:42.782Z,22.96
2018-04-30T09:01:08.733Z,22.93
2018-04-30T09:03:34.684Z,22.99
2018-04-30T09:06:00.606Z,22.80
2018-04-30T09:08:26.572Z,22.79
2018-04-30T09:10:52.491Z,22.91
2018-04-30T09:13:18.438Z,22.88
2018-04-30T09:25:54.763Z,22.52
2018-04-30T09:28:20.750Z,22.65
2018-04-30T09:30:46.800Z,22.55
2018-04-30T09:33:12.754Z,22.53
2018-04-30T09:35:38.682Z,22.58
2018-04-30T09:38:04.622Z,22.48
2018-04-30T09:40:30.558Z,22.45
2018-04-30T09:42:56.548Z,22.29
2018-04-30T09:45:22.516Z,22.31
2018-04-30T09:47:48.492Z,21.93
2018-04-30T09:50:14.429Z,22.06
2018-04-30T09:52:40.414Z,21.98
2018-04-30T09:55:06.375Z,21.93
2018-04-30T09:57:32.338Z,21.88
2018-04-30T09:59:58.292Z,21.92
2018-04-30T10:02:24.258Z,21.93
2018-04-30T10:04:50.188Z,21.62
2018-04-30T10:07:16.134Z,21.58
2018-04-30T10:09:42.112Z,21.50
2018-04-30T10:12:08.275Z,21.62
2018-04-30T10:14:34.200Z,21.49
2018-04-30T10:17:00.197Z,21.60
2018-04-30T10:19:26.153Z,21.67
2018-04-30T10:21:52.118Z,21.52
2018-04-30T10:24:18.089Z,21.63
2018-04-30T10:26:44.014Z,21.48
2018-04-30T10:29:10.031Z,21.40
2018-04-30T10:31:35.978Z,21.40
2018-04-30T10:34:01.926Z,21.15
2018-04-30T10:36:27.873Z,21.25
2018-04-30T10:38:53.827Z,21.06
2018-04-30T10:41:19.773Z,21.20
2018-04-30T10:43:45.702Z,21.30
2018-04-30T10:46:11.671Z,21.24
2018-04-30T10:48:37.666Z,21.14
2018-04-30T10:51:03.618Z,21.18
2018-04-30T10:53:29.595Z,21.40
2018-04-30T10:55:55.583Z,21.48
2018-04-30T10:58:21.574Z,21.43
2018-04-30T11:00:47.535Z,21.64
2018-04-30T11:03:13.496Z,21.79
2018-04-30T11:05:39.473Z,21.87
2018-04-30T11:08:05.512Z,21.96
2018-04-30T11:10:31.527Z,21.85
2018-04-30T11:12:57.585Z,21.85
2018-04-30T11:15:23.563Z,21.76
2018-04-30T11:17:50.300Z,21.71
2018-04-30T11:20:16.290Z,21.67
2018-04-30T11:22:42.347Z,21.49
2018-04-30T11:25:08.315Z,21.34
2018-04-30T11:27:35.091Z,21.33
2018-04-30T11:30:01.015Z,21.44
2018-04-30T11:32:27.101Z,21.44
2018-04-30T11:34:53.092Z,21.53
2018-04-30T11:37:19.058Z,21.63
2018-04-30T11:39:45.076Z,21.73
2018-04-30T11:42:11.125Z,21.83
2018-04-30T11:44:37.095Z,21.89
2018-04-30T11:47:03.130Z,21.95
2018-04-30T11:49:29.045Z,21.97
2018-04-30T11:51:55.050Z,21.91
2018-04-30T11:54:21.148Z,21.93
2018-04-30T11:59:19.087Z,22.02
2018-04-30T12:01:45.044Z,22.05
2018-04-30T12:04:11.038Z,21.93
2018-04-30T12:06:37.071Z,21.87
2018-04-30T12:09:03.050Z,21.90
2018-04-30T12:11:29.009Z,21.85
2018-04-30T12:13:55.019Z,21.92
2018-04-30T12:16:20.956Z,21.94
2018-04-30T12:18:46.908Z,22.01
2018-04-30T12:21:12.878Z,22.02
2018-04-30T12:23:38.829Z,22.06
2018-04-30T12:26:04.765Z,22.08
2018-04-30T12:28:30.740Z,22.23
2018-04-30T12:30:56.738Z,22.16
2018-04-30T12:33:22.749Z,22.05
2018-04-30T12:35:48.705Z,22.23
2018-04-30T12:38:14.711Z,22.34
2018-04-30T12:40:40.676Z,22.27
2018-04-30T12:43:06.658Z,22.39
2018-04-30T12:45:32.663Z,22.33
2018-04-30T12:47:58.617Z,22.29
2018-04-30T12:50:24.566Z,22.28
2018-04-30T12:52:50.521Z,22.19
2018-04-30T12:55:16.468Z,22.24
2018-04-30T12:57:42.458Z,22.29
2018-04-30T13:00:08.469Z,22.27
2018-04-30T13:02:34.443Z,22.10
2018-04-30T13:05:00.415Z,21.94
2018-04-30T13:07:26.373Z,21.96
2018-04-30T13:09:52.321Z,22.06
2018-04-30T13:12:18.317Z,21.89
2018-04-30T13:14:44.273Z,21.86
2018-04-30T13:17:10.243Z,21.78
2018-04-30T13:19:36.193Z,21.73
2018-04-30T13:22:02.132Z,21.76
2018-04-30T13:24:28.101Z,21.57
2018-04-30T13:26:54.048Z,21.58
2018-04-30T13:29:19.997Z,21.62
2018-04-30T13:31:45.954Z,21.60
2018-04-30T13:34:11.964Z,21.48
2018-04-30T13:36:40.039Z,21.57
2018-04-30T13:39:06.018Z,21.56
2018-04-30T13:41:31.950Z,21.53
2018-04-30T13:43:57.879Z,21.59
2018-04-30T13:46:23.878Z,21.58
2018-04-30T13:48:49.841Z,21.62
2018-04-30T13:51:15.781Z,21.53
2018-04-30T13:53:41.755Z,21.55
2018-04-30T13:56:07.700Z,21.46
2018-04-30T13:58:33.652Z,21.53
2018-04-30T14:00:59.601Z,21.52
2018-04-30T14:03:25.554Z,21.42
2018-04-30T14:05:51.482Z,21.50
2018-04-30T14:08:17.425Z,21.47
2018-04-30T14:10:43.385Z,21.46
2018-04-30T14:13:09.344Z,21.56
2018-04-30T14:18:07.690Z,21.63
2018-04-30T14:20:37.781Z,21.39
2018-04-30T14:23:03.737Z,21.48
2018-04-30T14:25:29.671Z,21.42
2018-04-30T14:27:55.741Z,21.48
2018-04-30T14:30:21.646Z,21.52
2018-04-30T14:32:47.588Z,21.61
2018-04-30T14:35:13.544Z,21.57
2018-04-30T14:37:39.470Z,21.55
2018-04-30T14:40:05.453Z,21.60
2018-04-30T14:42:31.409Z,21.62
2018-04-30T14:44:57.365Z,21.73
2018-04-30T14:47:23.341Z,21.69
2018-04-30T14:49:49.275Z,21.77
2018-04-30T14:52:15.200Z,21.75
2018-04-30T14:54:41.150Z,21.79
2018-04-30T14:57:07.138Z,21.75
2018-04-30T14:59:33.114Z,21.72
2018-04-30T15:01:59.074Z,21.62
2018-04-30T15:04:25.052Z,21.67
2018-04-30T15:06:51.071Z,21.68
2018-04-30T15:09:17.047Z,21.66
2018-04-30T15:11:43.012Z,21.63
2018-04-30T15:14:08.974Z,21.63
2018-04-30T15:16:34.934Z,21.64
2018-04-30T15:19:00.935Z,21.67
2018-04-30T15:21:27.055Z,21.61
2018-04-30T15:23:53.007Z,21.68
2018-04-30T15:26:18.943Z,21.70
2018-04-30T15:28:44.916Z,21.64
2018-04-30T15:31:10.886Z,21.60
2018-04-30T15:33:36.881Z,21.61
2018-04-30T15:36:02.875Z,21.62
2018-04-30T15:38:28.808Z,21.54
2018-04-30T15:40:54.769Z,21.61
2018-04-30T15:43:20.738Z,21.56
2018-04-30T15:45:46.737Z,21.50
2018-04-30T15:48:12.725Z,21.50
2018-04-30T15:50:38.744Z,21.51
2018-04-30T15:53:04.706Z,21.49
2018-04-30T15:55:30.684Z,21.48
2018-04-30T15:57:56.678Z,21.52
2018-04-30T16:00:22.682Z,21.55
2018-04-30T16:02:48.649Z,21.59
2018-04-30T16:05:14.580Z,21.53
2018-04-30T16:07:40.571Z,21.59
2018-04-30T16:10:06.570Z,21.59
2018-04-30T16:12:32.534Z,21.57
2018-04-30T16:14:58.513Z,21.61
2018-04-30T16:17:24.455Z,21.64
2018-04-30T16:19:50.391Z,21.60
2018-04-30T16:22:16.381Z,21.67
2018-04-30T16:24:42.313Z,21.61
2018-04-30T16:27:08.289Z,21.59
2018-04-30T16:29:34.240Z,21.56
2018-04-30T16:32:00.248Z,21.63
2018-04-30T16:34:26.218Z,21.64
2018-04-30T16:36:52.235Z,21.56
2018-04-30T16:39:18.196Z,21.52
2018-04-30T16:41:44.150Z,21.49
2018-04-30T16:44:10.092Z,21.46
2018-04-30T16:46:36.074Z,21.49
2018-04-30T16:49:02.055Z,21.51
2018-04-30T16:51:28.033Z,21.54
2018-04-30T16:53:53.991Z,21.53
2018-04-30T16:56:19.948Z,21.51
2018-04-30T16:58:45.898Z,21.55
2018-04-30T17:01:11.897Z,21.53
2018-04-30T17:03:37.896Z,21.56
2018-04-30T17:06:04.013Z,21.56
2018-04-30T17:08:30.073Z,21.54
2018-04-30T17:44:39.504Z,21.52
2018-04-30T17:47:05.496Z,21.40
2018-04-30T17:49:31.448Z,21.36
2018-04-30T17:51:57.530Z,21.39
2018-04-30T17:54:23.465Z,21.34
2018-04-30T17:56:49.429Z,21.30
2018-04-30T17:59:15.395Z,21.26
2018-04-30T18:01:41.364Z,21.14
2018-04-30T18:04:07.375Z,21.05
2018-04-30T18:06:33.317Z,20.82
2018-04-30T18:08:59.309Z,20.40
2018-04-30T18:11:25.277Z,20.19
2018-04-30T18:13:51.238Z,20.27
2018-04-30T18:16:17.230Z,19.78
2018-04-30T18:18:43.189Z,19.57
2018-04-30T18:21:09.191Z,19.59
2018-04-30T18:23:35.254Z,19.59
2018-04-30T18:26:01.374Z,19.34
2018-04-30T18:28:27.425Z,19.20
2018-04-30T18:30:53.583Z,19.11
2018-04-30T18:33:20.717Z,19.03
2018-04-30T18:35:46.615Z,19.14
2018-04-30T18:38:12.824Z,19.31
2018-04-30T18:40:38.765Z,19.42
2018-04-30T18:43:04.929Z,19.11
2018-04-30T18:45:31.128Z,19.46
2018-04-30T18:47:57.127Z,19.57
2018-04-30T18:50:23.056Z,19.26
2018-04-30T18:52:49.001Z,19.50
2018-04-30T18:55:15.008Z,19.22
2018-04-30T18:57:40.965Z,18.88
2018-04-30T19:00:06.955Z,18.63
2018-04-30T19:02:32.978Z,18.50
2018-04-30T19:04:58.920Z,18.58
2018-04-30T19:07:24.874Z,18.67
2018-04-30T19:09:50.814Z,18.18
2018-04-30T19:12:16.843Z,18.53
2018-04-30T19:14:42.845Z,18.62
2018-04-30T19:17:08.816Z,18.93
2018-04-30T19:19:34.846Z,18.60
2018-04-30T19:22:00.817Z,18.92
2018-04-30T19:24:26.762Z,18.95
2018-04-30T19:26:52.705Z,18.72
2018-04-30T19:29:18.645Z,18.33
2018-04-30T19:31:44.681Z,18.30
2018-04-30T19:34:10.683Z,18.09
2018-04-30T19:36:36.669Z,17.84
2018-04-30T19:39:02.668Z,17.96
2018-04-30T19:41:28.644Z,17.66
2018-04-30T19:43:54.610Z,17.83
2018-04-30T19:46:20.578Z,18.03
2018-04-30T19:48:46.561Z,18.45
2018-04-30T19:51:12.496Z,18.52
2018-04-30T19:53:38.420Z,18.47
2018-04-30T19:56:04.446Z,18.46
2018-04-30T19:58:30.417Z,18.75
2018-04-30T20:00:56.373Z,18.91
2018-04-30T20:03:22.335Z,18.78
2018-04-30T20:05:49.300Z,18.89
2018-04-30T20:08:15.269Z,18.93
2018-04-30T20:10:41.217Z,18.71
2018-04-30T20:13:07.214Z,18.29
2018-04-30T20:15:33.164Z,17.88
2018-04-30T20:17:59.341Z,18.19
2018-04-30T20:20:25.418Z,17.85
2018-04-30T20:22:51.411Z,18.00
2018-04-30T20:25:17.508Z,17.95
2018-04-30T20:32:45.964Z,17.74
2018-04-30T20:35:11.949Z,17.97
2018-04-30T20:37:37.979Z,18.08
2018-04-30T20:40:03.960Z,17.92
2018-04-30T20:42:29.952Z,18.05
2018-04-30T20:44:55.997Z,17.62
2018-04-30T20:47:21.945Z,17.76
2018-04-30T20:49:47.962Z,17.29
2018-04-30T20:52:13.931Z,17.24
2018-04-30T20:54:39.916Z,17.19
2018-04-30T20:57:05.886Z,17.06
2018-04-30T20:59:31.851Z,17.19
2018-04-30T21:01:57.803Z,17.28
2018-04-30T21:04:23.745Z,17.76
2018-04-30T21:06:49.700Z,17.13
2018-04-30T21:09:15.677Z,17.10
2018-04-30T21:11:41.641Z,16.79
2018-04-30T21:14:07.644Z,17.18
2018-04-30T21:16:33.616Z,17.05
2018-04-30T21:18:59.583Z,16.76
2018-04-30T21:21:25.645Z,16.56
2018-04-30T21:23:51.526Z,16.74
2018-04-30T21:26:17.475Z,17.30
2018-04-30T21:28:43.450Z,16.79
2018-04-30T21:31:09.397Z,16.95
2018-04-30T21:33:35.401Z,17.45
2018-04-30T21:36:01.383Z,17.09
2018-04-30T21:38:27.335Z,17.27
2018-04-30T21:40:53.286Z,17.08
2018-04-30T21:43:19.236Z,17.28
2018-04-30T21:45:45.187Z,17.13
2018-04-30T21:48:11.168Z,17.24
2018-04-30T21:50:37.208Z,17.23
2018-04-30T21:53:03.146Z,17.16
2018-04-30T21:55:29.127Z,17.00
2018-04-30T21:57:55.084Z,16.76
2018-04-30T22:00:21.138Z,17.02
2018-04-30T22:02:47.184Z,16.98
2018-04-30T22:05:13.168Z,17.18
2018-04-30T22:07:39.243Z,16.74
2018-04-30T22:10:05.204Z,16.37
2018-04-30T22:12:31.196Z,16.80
2018-04-30T22:14:57.149Z,16.50
2018-04-30T22:17:23.212Z,16.65
2018-04-30T22:19:49.134Z,16.75
2018-04-30T22:22:15.070Z,16.87
2018-04-30T22:24:41.013Z,16.96
2018-04-30T22:27:06.969Z,17.03
2018-04-30T22:29:32.958Z,16.81
2018-04-30T22:31:58.903Z,16.80
2018-04-30T22:34:24.888Z,16.49
2018-04-30T22:36:50.911Z,16.35
2018-04-30T22:39:16.874Z,16.41
2018-04-30T22:41:42.853Z,16.73
2018-04-30T22:44:08.881Z,16.43
2018-04-30T22:46:34.826Z,16.20
2018-04-30T22:49:00.761Z,16.61
2018-04-30T22:51:26.739Z,16.17
2018-04-30T22:53:54.700Z,16.27
2018-04-30T22:56:20.710Z,16.15
2018-04-30T22:58:46.705Z,16.14
2018-04-30T23:01:12.620Z,16.26
2018-04-30T23:03:38.585Z,16.27
2018-04-30T23:06:04.521Z,16.44
2018-04-30T23:08:30.463Z,16.38
2018-04-30T23:10:56.454Z,16.86
2018-04-30T23:13:22.419Z,16.53
2018-04-30T23:15:48.382Z,16.31
2018-04-30T23:18:14.383Z,16.11
2018-04-30T23:20:40.325Z,16.27
2018-04-30T23:23:06.360Z,16.49
2018-04-30T23:25:32.296Z,16.64
2018-04-30T23:27:58.246Z,16.70
2018-04-30T23:30:24.186Z,16.80
2018-04-30T23:32:50.139Z,16.53
2018-04-30T23:35:16.113Z,16.38
2018-04-30T23:37:42.051Z,16.18
2018-04-30T23:40:08.047Z,16.48
2018-04-30T23:42:34.017Z,16.15
2018-04-30T23:44:59.956Z,16.07
2018-04-30T23:47:25.890Z,16.44
2018-04-30T23:49:51.858Z,16.92
2018-04-30T23:52:17.841Z,17.05
2018-04-30T23:54:43.797Z,17.02
2018-04-30T23:57:09.786Z,16.78
2018-04-30T23:59:35.776Z,16.94
